Time;durP1;ratioP1;P1;durP2;ratioP2;P2;SDS_P1;SDS_P2;PMS_P1;PMS_P2;Temp;Humidity;BMP_temperature;BMP_pressure;BME280_temperature;BME280_humidity;BME280_pressure;Samples;Min_cycle;Max_cycle;Signal;HPM_P1;HPM_P2
2023/03/01 00:00:00;;;;;;;3.7;3.6;;;;;;;0.2;100.0;102890;;;;
2023/03/01 00:01:02;;;;;;;3.7;3.6;;;;;;;0.2;100.0;102890;;;;
2023/03/01 00:02:01;;;;;;;3.7;3.6;;;;;;;0.2;100.0;102900;;;;
2023/03/01 00:03:00;;;;;;;3.7;3.6;;;;;;;0.2;100.0;102900;;;;
2023/03/01 00:04:00;;;;;;;3.7;3.6;;;;;;;0.2;100.0;102900;;;;
2023/03/01 00:05:00;;;;;;;3.7;3.6;;;;;;;0.2;100.0;102900;;;;
2023/03/01 00:06:00;;;;;;;3.7;3.6;;;;;;;0.2;100.0;102890;;;;
2023/03/01 00:07:00;;;;;;;3.7;3.6;;;;;;;0.2;100.0;102890;;;;
2023/03/01 00:08:00;;;;;;;3.7;3.6;;;;;;;0.1;100.0;102890;;;;
2023/03/01 00:09:00;;;;;;;3.7;3.6;;;;;;;0.1;100.0;102890;;;;
2023/03/01 00:10:00;;;;;;;3.7;3.6;;;;;;;0.1;100.0;102890;;;;
2023/03/01 00:11:06;;;;;;;3.7;3.6;;;;;;;0.1;100.0;102890;;;;
2023/03/01 00:12:00;;;;;;;3.6;3.5;;;;;;;0.2;100.0;102880;;;;
2023/03/01 00:13:00;;;;;;;3.6;3.5;;;;;;;0.2;100.0;102880;;;;
2023/03/01 00:14:01;;;;;;;3.6;3.5;;;;;;;0.2;100.0;102890;;;;
2023/03/01 00:15:00;;;;;;;3.6;3.5;;;;;;;0.2;100.0;102890;;;;
2023/03/01 00:16:03;;;;;;;3.6;3.5;;;;;;;0.1;100.0;102890;;;;
2023/03/01 00:17:01;;;;;;;3.6;3.5;;;;;;;0.1;100.0;102890;;;;
2023/03/01 00:18:00;;;;;;;3.6;3.5;;;;;;;-0.0;100.0;102890;;;;
2023/03/01 00:19:01;;;;;;;3.6;3.5;;;;;;;-0.0;100.0;102890;;;;
2023/03/01 00:20:00;;;;;;;3.6;3.5;;;;;;;-0.1;100.0;102890;;;;
2023/03/01 00:21:01;;;;;;;3.6;3.5;;;;;;;-0.1;100.0;102890;;;;
2023/03/01 00:22:00;;;;;;;3.6;3.5;;;;;;;-0.1;100.0;102890;;;;
2023/03/01 00:23:00;;;;;;;3.6;3.5;;;;;;;-0.1;100.0;102890;;;;
2023/03/01 00:24:01;;;;;;;3.6;3.5;;;;;;;-0.2;100.0;102890;;;;
2023/03/01 00:25:00;;;;;;;3.6;3.5;;;;;;;-0.2;100.0;102890;;;;
2023/03/01 00:26:00;;;;;;;3.6;3.5;;;;;;;-0.3;100.0;102900;;;;
2023/03/01 00:27:00;;;;;;;3.6;3.5;;;;;;;-0.3;100.0;102900;;;;
2023/03/01 00:28:00;;;;;;;3.6;3.5;;;;;;;-0.2;100.0;102890;;;;
2023/03/01 00:29:00;;;;;;;3.6;3.5;;;;;;;-0.2;100.0;102890;;;;
2023/03/01 00:30:00;;;;;;;3.6;3.5;;;;;;;-0.3;100.0;102890;;;;
2023/03/01 00:31:03;;;;;;;3.6;3.5;;;;;;;-0.3;100.0;102890;;;;
2023/03/01 00:32:00;;;;;;;3.8;3.7;;;;;;;-0.3;100.0;102890;;;;
2023/03/01 00:33:00;;;;;;;3.8;3.7;;;;;;;-0.3;100.0;102890;;;;
2023/03/01 00:34:03;;;;;;;3.8;3.7;;;;;;;-0.3;100.0;102890;;;;
2023/03/01 00:35:00;;;;;;;3.8;3.7;;;;;;;-0.3;100.0;102890;;;;
2023/03/01 00:36:00;;;;;;;3.8;3.7;;;;;;;-0.2;100.0;102890;;;;
2023/03/01 00:37:04;;;;;;;3.8;3.7;;;;;;;-0.2;100.0;102890;;;;
2023/03/01 00:38:00;;;;;;;3.8;3.7;;;;;;;-0.1;100.0;102890;;;;
2023/03/01 00:39:01;;;;;;;3.8;3.7;;;;;;;-0.1;100.0;102890;;;;
2023/03/01 00:40:00;;;;;;;3.8;3.7;;;;;;;-0.1;100.0;102890;;;;
2023/03/01 00:41:09;;;;;;;3.8;3.7;;;;;;;-0.1;100.0;102890;;;;
2023/03/01 00:42:00;;;;;;;3.8;3.7;;;;;;;-0.2;100.0;102890;;;;
2023/03/01 00:43:01;;;;;;;3.8;3.7;;;;;;;-0.2;100.0;102890;;;;
2023/03/01 00:44:00;;;;;;;3.8;3.7;;;;;;;-0.2;100.0;102880;;;;
2023/03/01 00:45:00;;;;;;;3.8;3.7;;;;;;;-0.2;100.0;102880;;;;
2023/03/01 00:46:01;;;;;;;3.8;3.7;;;;;;;-0.3;100.0;102880;;;;
2023/03/01 00:47:00;;;;;;;3.8;3.7;;;;;;;-0.3;100.0;102880;;;;
2023/03/01 00:48:00;;;;;;;3.8;3.7;;;;;;;-0.2;100.0;102880;;;;
2023/03/01 00:49:01;;;;;;;3.8;3.7;;;;;;;-0.2;100.0;102880;;;;
2023/03/01 00:50:00;;;;;;;3.8;3.7;;;;;;;-0.2;100.0;102870;;;;
2023/03/01 00:51:04;;;;;;;3.8;3.7;;;;;;;-0.2;100.0;102870;;;;
2023/03/01 00:52:00;;;;;;;4.0;3.9;;;;;;;-0.3;100.0;102870;;;;
2023/03/01 00:53:00;;;;;;;4.0;3.9;;;;;;;-0.3;100.0;102870;;;;
2023/03/01 00:54:02;;;;;;;4.0;3.9;;;;;;;-0.4;100.0;102880;;;;
2023/03/01 00:55:00;;;;;;;4.0;3.9;;;;;;;-0.4;100.0;102880;;;;
2023/03/01 00:56:00;;;;;;;4.0;3.9;;;;;;;-0.3;100.0;102870;;;;
2023/03/01 00:57:00;;;;;;;4.0;3.9;;;;;;;-0.3;100.0;102870;;;;
2023/03/01 00:58:00;;;;;;;4.0;3.9;;;;;;;-0.2;100.0;102870;;;;
2023/03/01 00:59:01;;;;;;;4.0;3.9;;;;;;;-0.2;100.0;102870;;;;
2023/03/01 01:00:00;;;;;;;4.0;3.9;;;;;;;-0.3;100.0;102860;;;;
2023/03/01 01:01:00;;;;;;;4.0;3.9;;;;;;;-0.3;100.0;102860;;;;
2023/03/01 01:02:00;;;;;;;4.0;3.9;;;;;;;-0.4;100.0;102860;;;;
2023/03/01 01:03:00;;;;;;;4.0;3.9;;;;;;;-0.4;100.0;102860;;;;
2023/03/01 01:04:02;;;;;;;4.0;3.9;;;;;;;-0.3;100.0;102860;;;;
2023/03/01 01:05:00;;;;;;;4.0;3.9;;;;;;;-0.3;100.0;102860;;;;
2023/03/01 01:06:08;;;;;;;4.0;3.9;;;;;;;-0.3;100.0;102860;;;;
2023/03/01 01:07:00;;;;;;;4.0;3.9;;;;;;;-0.3;100.0;102860;;;;
2023/03/01 01:08:00;;;;;;;4.0;3.9;;;;;;;-0.4;100.0;102870;;;;
2023/03/01 01:09:01;;;;;;;4.0;3.9;;;;;;;-0.4;100.0;102870;;;;
2023/03/01 01:10:00;;;;;;;4.0;3.9;;;;;;;-0.3;100.0;102870;;;;
2023/03/01 01:11:00;;;;;;;4.0;3.9;;;;;;;-0.3;100.0;102870;;;;
2023/03/01 01:12:01;;;;;;;4.1;4.0;;;;;;;-0.4;100.0;102860;;;;
2023/03/01 01:13:00;;;;;;;4.1;4.0;;;;;;;-0.4;100.0;102860;;;;
2023/03/01 01:14:00;;;;;;;4.1;4.0;;;;;;;-0.4;100.0;102860;;;;
2023/03/01 01:15:00;;;;;;;4.1;4.0;;;;;;;-0.4;100.0;102860;;;;
2023/03/01 01:16:01;;;;;;;4.1;4.0;;;;;;;-0.4;100.0;102850;;;;
2023/03/01 01:17:00;;;;;;;4.1;4.0;;;;;;;-0.4;100.0;102850;;;;
2023/03/01 01:18:01;;;;;;;4.1;4.0;;;;;;;-0.5;100.0;102850;;;;
2023/03/01 01:19:00;;;;;;;4.1;4.0;;;;;;;-0.5;100.0;102850;;;;
2023/03/01 01:20:00;;;;;;;4.1;4.0;;;;;;;-0.5;100.0;102850;;;;
2023/03/01 01:21:10;;;;;;;4.1;4.0;;;;;;;-0.5;100.0;102850;;;;
2023/03/01 01:22:00;;;;;;;4.1;4.0;;;;;;;-0.5;100.0;102840;;;;
2023/03/01 01:23:00;;;;;;;4.1;4.0;;;;;;;-0.5;100.0;102840;;;;
2023/03/01 01:24:02;;;;;;;4.1;4.0;;;;;;;-0.5;100.0;102840;;;;
2023/03/01 01:25:00;;;;;;;4.1;4.0;;;;;;;-0.5;100.0;102840;;;;
2023/03/01 01:26:05;;;;;;;4.1;4.0;;;;;;;-0.5;100.0;102840;;;;
2023/03/01 01:27:00;;;;;;;4.1;4.0;;;;;;;-0.5;100.0;102840;;;;
2023/03/01 01:28:00;;;;;;;4.1;4.0;;;;;;;-0.6;100.0;102830;;;;
2023/03/01 01:29:01;;;;;;;4.1;4.0;;;;;;;-0.6;100.0;102830;;;;
2023/03/01 01:30:00;;;;;;;4.1;4.0;;;;;;;-0.6;100.0;102830;;;;
2023/03/01 01:31:00;;;;;;;4.1;4.0;;;;;;;-0.6;100.0;102830;;;;
2023/03/01 01:32:00;;;;;;;4.3;4.2;;;;;;;-0.5;100.0;102830;;;;
2023/03/01 01:33:00;;;;;;;4.3;4.2;;;;;;;-0.5;100.0;102830;;;;
2023/03/01 01:34:02;;;;;;;4.3;4.2;;;;;;;-0.5;100.0;102830;;;;
2023/03/01 01:35:00;;;;;;;4.3;4.2;;;;;;;-0.5;100.0;102830;;;;
2023/03/01 01:36:00;;;;;;;4.3;4.2;;;;;;;-0.6;100.0;102820;;;;
2023/03/01 01:37:02;;;;;;;4.3;4.2;;;;;;;-0.6;100.0;102820;;;;
2023/03/01 01:38:00;;;;;;;4.3;4.2;;;;;;;-0.5;100.0;102820;;;;
2023/03/01 01:39:00;;;;;;;4.3;4.2;;;;;;;-0.5;100.0;102820;;;;
2023/03/01 01:40:03;;;;;;;4.3;4.2;;;;;;;-0.5;100.0;102820;;;;
2023/03/01 01:41:00;;;;;;;4.3;4.2;;;;;;;-0.5;100.0;102820;;;;
2023/03/01 01:42:01;;;;;;;4.3;4.2;;;;;;;-0.5;100.0;102820;;;;
2023/03/01 01:43:00;;;;;;;4.3;4.2;;;;;;;-0.5;100.0;102820;;;;
2023/03/01 01:44:10;;;;;;;4.3;4.2;;;;;;;-0.6;100.0;102820;;;;
2023/03/01 01:45:10;;;;;;;4.3;4.2;;;;;;;-0.6;100.0;102820;;;;
2023/03/01 01:46:12;;;;;;;4.3;4.2;;;;;;;-0.6;100.0;102830;;;;
2023/03/01 01:47:04;;;;;;;4.3;4.2;;;;;;;-0.6;100.0;102830;;;;
2023/03/01 01:48:03;;;;;;;4.3;4.2;;;;;;;-0.7;100.0;102810;;;;
2023/03/01 01:49:03;;;;;;;4.3;4.2;;;;;;;-0.7;100.0;102810;;;;
2023/03/01 01:50:01;;;;;;;4.3;4.2;;;;;;;-0.6;100.0;102820;;;;
2023/03/01 01:51:00;;;;;;;4.3;4.2;;;;;;;-0.6;100.0;102820;;;;
2023/03/01 01:52:05;;;;;;;4.0;3.9;;;;;;;-0.7;100.0;102820;;;;
2023/03/01 01:53:00;;;;;;;4.0;3.9;;;;;;;-0.7;100.0;102820;;;;
2023/03/01 01:54:01;;;;;;;4.0;3.9;;;;;;;-0.7;100.0;102820;;;;
2023/03/01 01:55:05;;;;;;;4.0;3.9;;;;;;;-0.7;100.0;102820;;;;
2023/03/01 01:56:01;;;;;;;4.0;3.9;;;;;;;-0.7;100.0;102810;;;;
2023/03/01 01:57:03;;;;;;;4.0;3.9;;;;;;;-0.7;100.0;102810;;;;
2023/03/01 01:58:02;;;;;;;4.0;3.9;;;;;;;-0.8;100.0;102810;;;;
2023/03/01 01:59:01;;;;;;;4.0;3.9;;;;;;;-0.8;100.0;102810;;;;
2023/03/01 02:00:04;;;;;;;4.0;3.9;;;;;;;-0.7;100.0;102800;;;;
2023/03/01 02:01:01;;;;;;;4.0;3.9;;;;;;;-0.7;100.0;102800;;;;
2023/03/01 02:02:02;;;;;;;4.0;3.9;;;;;;;-0.7;100.0;102800;;;;
2023/03/01 02:03:03;;;;;;;4.0;3.9;;;;;;;-0.7;100.0;102800;;;;
2023/03/01 02:04:00;;;;;;;4.0;3.9;;;;;;;-0.8;100.0;102800;;;;
2023/03/01 02:05:10;;;;;;;4.0;3.9;;;;;;;-0.8;100.0;102800;;;;
2023/03/01 02:06:03;;;;;;;4.0;3.9;;;;;;;-0.8;100.0;102800;;;;
2023/03/01 02:07:05;;;;;;;4.0;3.9;;;;;;;-0.8;100.0;102800;;;;
2023/03/01 02:08:00;;;;;;;4.0;3.9;;;;;;;-0.8;100.0;102800;;;;
2023/03/01 02:09:04;;;;;;;4.0;3.9;;;;;;;-0.8;100.0;102800;;;;
2023/03/01 02:10:00;;;;;;;4.0;3.9;;;;;;;-0.9;100.0;102800;;;;
2023/03/01 02:11:00;;;;;;;3.9;3.8;;;;;;;-0.9;100.0;102800;;;;
2023/03/01 02:12:01;;;;;;;3.9;3.8;;;;;;;-0.9;100.0;102800;;;;
2023/03/01 02:13:01;;;;;;;3.9;3.8;;;;;;;-0.9;100.0;102800;;;;
2023/03/01 02:14:00;;;;;;;3.9;3.8;;;;;;;-0.9;100.0;102800;;;;
2023/03/01 02:15:00;;;;;;;3.9;3.8;;;;;;;-0.9;100.0;102800;;;;
2023/03/01 02:16:05;;;;;;;3.9;3.8;;;;;;;-0.9;100.0;102800;;;;
2023/03/01 02:17:00;;;;;;;3.9;3.8;;;;;;;-0.9;100.0;102800;;;;
2023/03/01 02:18:01;;;;;;;3.9;3.8;;;;;;;-0.9;100.0;102810;;;;
2023/03/01 02:19:00;;;;;;;3.9;3.8;;;;;;;-0.9;100.0;102810;;;;
2023/03/01 02:20:10;;;;;;;3.9;3.8;;;;;;;-1.0;100.0;102810;;;;
2023/03/01 02:21:03;;;;;;;3.9;3.8;;;;;;;-1.0;100.0;102810;;;;
2023/03/01 02:22:06;;;;;;;3.9;3.8;;;;;;;-0.9;100.0;102810;;;;
2023/03/01 02:23:00;;;;;;;3.9;3.8;;;;;;;-0.9;100.0;102810;;;;
2023/03/01 02:24:05;;;;;;;3.9;3.8;;;;;;;-1.1;100.0;102800;;;;
2023/03/01 02:25:08;;;;;;;3.9;3.8;;;;;;;-1.1;100.0;102800;;;;
2023/03/01 02:26:07;;;;;;;3.9;3.8;;;;;;;-1.1;100.0;102810;;;;
2023/03/01 02:27:01;;;;;;;3.9;3.8;;;;;;;-1.1;100.0;102810;;;;
2023/03/01 02:28:01;;;;;;;3.9;3.8;;;;;;;-1.1;100.0;102810;;;;
2023/03/01 02:29:00;;;;;;;3.9;3.8;;;;;;;-1.1;100.0;102810;;;;
2023/03/01 02:30:00;;;;;;;3.9;3.8;;;;;;;-1.1;100.0;102800;;;;
2023/03/01 02:32:02;;;;;;;3.9;3.8;;;;;;;-1.0;100.0;102800;;;;
2023/03/01 02:33:04;;;;;;;3.9;3.8;;;;;;;-1.0;100.0;102800;;;;
2023/03/01 02:34:04;;;;;;;3.9;3.8;;;;;;;-1.0;100.0;102790;;;;
2023/03/01 02:35:01;;;;;;;3.9;3.8;;;;;;;-1.0;100.0;102790;;;;
2023/03/01 02:36:01;;;;;;;3.9;3.8;;;;;;;-1.0;100.0;102790;;;;
2023/03/01 02:37:04;;;;;;;3.9;3.8;;;;;;;-1.0;100.0;102790;;;;
2023/03/01 02:38:01;;;;;;;3.9;3.8;;;;;;;-1.1;100.0;102790;;;;
2023/03/01 02:39:02;;;;;;;3.9;3.8;;;;;;;-1.1;100.0;102790;;;;
2023/03/01 02:40:03;;;;;;;3.9;3.8;;;;;;;-1.1;100.0;102790;;;;
2023/03/01 02:41:02;;;;;;;3.9;3.8;;;;;;;-1.1;100.0;102790;;;;
2023/03/01 02:42:02;;;;;;;3.9;3.8;;;;;;;-1.1;100.0;102790;;;;
2023/03/01 02:43:00;;;;;;;3.9;3.8;;;;;;;-1.1;100.0;102790;;;;
2023/03/01 02:44:00;;;;;;;3.9;3.8;;;;;;;-1.2;100.0;102790;;;;
2023/03/01 02:45:00;;;;;;;3.9;3.8;;;;;;;-1.2;100.0;102790;;;;
2023/03/01 02:46:05;;;;;;;3.9;3.8;;;;;;;-1.3;100.0;102790;;;;
2023/03/01 02:47:02;;;;;;;3.9;3.8;;;;;;;-1.3;100.0;102790;;;;
2023/03/01 02:48:00;;;;;;;3.9;3.8;;;;;;;-1.2;100.0;102790;;;;
2023/03/01 02:49:00;;;;;;;3.9;3.8;;;;;;;-1.2;100.0;102790;;;;
2023/03/01 02:50:00;;;;;;;3.9;3.8;;;;;;;-1.2;100.0;102790;;;;
2023/03/01 02:51:04;;;;;;;4.1;4.0;;;;;;;-1.2;100.0;102790;;;;
2023/03/01 02:52:02;;;;;;;4.1;4.0;;;;;;;-1.2;100.0;102790;;;;
2023/03/01 02:53:05;;;;;;;4.1;4.0;;;;;;;-1.2;100.0;102790;;;;
2023/03/01 02:54:10;;;;;;;4.1;4.0;;;;;;;-1.1;100.0;102790;;;;
2023/03/01 02:55:02;;;;;;;4.1;4.0;;;;;;;-1.1;100.0;102790;;;;
2023/03/01 02:56:01;;;;;;;4.1;4.0;;;;;;;-1.2;100.0;102800;;;;
2023/03/01 02:57:00;;;;;;;4.1;4.0;;;;;;;-1.2;100.0;102800;;;;
2023/03/01 02:58:01;;;;;;;4.1;4.0;;;;;;;-1.1;100.0;102790;;;;
2023/03/01 02:59:00;;;;;;;4.1;4.0;;;;;;;-1.1;100.0;102790;;;;
2023/03/01 03:00:08;;;;;;;4.1;4.0;;;;;;;-1.1;100.0;102790;;;;
2023/03/01 03:01:00;;;;;;;4.1;4.0;;;;;;;-1.1;100.0;102790;;;;
2023/03/01 03:02:00;;;;;;;4.1;4.0;;;;;;;-1.3;100.0;102790;;;;
2023/03/01 03:03:00;;;;;;;4.1;4.0;;;;;;;-1.3;100.0;102790;;;;
2023/03/01 03:04:00;;;;;;;4.1;4.0;;;;;;;-1.2;100.0;102780;;;;
2023/03/01 03:05:00;;;;;;;4.1;4.0;;;;;;;-1.2;100.0;102780;;;;
2023/03/01 03:06:00;;;;;;;4.1;4.0;;;;;;;-1.2;100.0;102790;;;;
2023/03/01 03:07:00;;;;;;;4.1;4.0;;;;;;;-1.2;100.0;102790;;;;
2023/03/01 03:08:01;;;;;;;4.1;4.0;;;;;;;-1.2;100.0;102790;;;;
2023/03/01 03:09:00;;;;;;;4.1;4.0;;;;;;;-1.2;100.0;102790;;;;
2023/03/01 03:10:01;;;;;;;4.1;4.0;;;;;;;-1.1;100.0;102790;;;;
2023/03/01 03:11:00;;;;;;;4.4;4.3;;;;;;;-1.1;100.0;102790;;;;
2023/03/01 03:12:00;;;;;;;4.4;4.3;;;;;;;-1.3;100.0;102800;;;;
2023/03/01 03:13:05;;;;;;;4.4;4.3;;;;;;;-1.3;100.0;102800;;;;
2023/03/01 03:14:01;;;;;;;4.4;4.3;;;;;;;-1.2;100.0;102790;;;;
2023/03/01 03:15:00;;;;;;;4.4;4.3;;;;;;;-1.2;100.0;102790;;;;
2023/03/01 03:16:02;;;;;;;4.4;4.3;;;;;;;-1.3;100.0;102790;;;;
2023/03/01 03:17:00;;;;;;;4.4;4.3;;;;;;;-1.3;100.0;102790;;;;
2023/03/01 03:18:00;;;;;;;4.4;4.3;;;;;;;-1.2;100.0;102790;;;;
2023/03/01 03:19:04;;;;;;;4.4;4.3;;;;;;;-1.2;100.0;102790;;;;
2023/03/01 03:20:00;;;;;;;4.4;4.3;;;;;;;-1.2;100.0;102790;;;;
2023/03/01 03:21:00;;;;;;;4.4;4.3;;;;;;;-1.2;100.0;102790;;;;
2023/03/01 03:22:01;;;;;;;4.4;4.3;;;;;;;-1.2;100.0;102790;;;;
2023/03/01 03:23:00;;;;;;;4.4;4.3;;;;;;;-1.2;100.0;102790;;;;
2023/03/01 03:24:00;;;;;;;4.4;4.3;;;;;;;-1.1;100.0;102790;;;;
2023/03/01 03:25:00;;;;;;;4.4;4.3;;;;;;;-1.1;100.0;102790;;;;
2023/03/01 03:26:00;;;;;;;4.4;4.3;;;;;;;-1.2;100.0;102780;;;;
2023/03/01 03:27:00;;;;;;;4.4;4.3;;;;;;;-1.2;100.0;102780;;;;
2023/03/01 03:28:00;;;;;;;4.4;4.3;;;;;;;-1.2;100.0;102780;;;;
2023/03/01 03:29:00;;;;;;;4.4;4.3;;;;;;;-1.2;100.0;102780;;;;
2023/03/01 03:30:00;;;;;;;4.4;4.3;;;;;;;-1.2;100.0;102790;;;;
2023/03/01 03:31:03;;;;;;;3.9;3.8;;;;;;;-1.2;100.0;102790;;;;
2023/03/01 03:32:00;;;;;;;3.9;3.8;;;;;;;-1.2;100.0;102780;;;;
2023/03/01 03:33:00;;;;;;;3.9;3.8;;;;;;;-1.2;100.0;102780;;;;
2023/03/01 03:34:00;;;;;;;3.9;3.8;;;;;;;-1.2;100.0;102790;;;;
2023/03/01 03:35:00;;;;;;;3.9;3.8;;;;;;;-1.2;100.0;102790;;;;
2023/03/01 03:36:00;;;;;;;3.9;3.8;;;;;;;-1.4;100.0;102790;;;;
2023/03/01 03:37:00;;;;;;;3.9;3.8;;;;;;;-1.4;100.0;102790;;;;
2023/03/01 03:38:01;;;;;;;3.9;3.8;;;;;;;-1.4;100.0;102790;;;;
2023/03/01 03:39:00;;;;;;;3.9;3.8;;;;;;;-1.4;100.0;102790;;;;
2023/03/01 03:40:00;;;;;;;3.9;3.8;;;;;;;-1.3;100.0;102790;;;;
2023/03/01 03:41:03;;;;;;;3.9;3.8;;;;;;;-1.3;100.0;102790;;;;
2023/03/01 03:42:01;;;;;;;3.9;3.8;;;;;;;-1.3;100.0;102790;;;;
2023/03/01 03:43:01;;;;;;;3.9;3.8;;;;;;;-1.3;100.0;102790;;;;
2023/03/01 03:44:00;;;;;;;3.9;3.8;;;;;;;-1.3;100.0;102790;;;;
2023/03/01 03:45:00;;;;;;;3.9;3.8;;;;;;;-1.3;100.0;102790;;;;
2023/03/01 03:46:05;;;;;;;3.9;3.8;;;;;;;-1.5;100.0;102790;;;;
2023/03/01 03:47:00;;;;;;;3.9;3.8;;;;;;;-1.5;100.0;102790;;;;
2023/03/01 03:48:01;;;;;;;3.9;3.8;;;;;;;-1.6;100.0;102780;;;;
2023/03/01 03:49:00;;;;;;;3.9;3.8;;;;;;;-1.6;100.0;102780;;;;
2023/03/01 03:50:00;;;;;;;3.9;3.8;;;;;;;-1.6;100.0;102790;;;;
2023/03/01 03:51:00;;;;;;;4.2;4.1;;;;;;;-1.6;100.0;102790;;;;
2023/03/01 03:52:00;;;;;;;4.2;4.1;;;;;;;-1.7;100.0;102780;;;;
2023/03/01 03:53:01;;;;;;;4.2;4.1;;;;;;;-1.7;100.0;102780;;;;
2023/03/01 03:54:00;;;;;;;4.2;4.1;;;;;;;-1.7;100.0;102780;;;;
2023/03/01 03:55:00;;;;;;;4.2;4.1;;;;;;;-1.7;100.0;102780;;;;
2023/03/01 03:56:00;;;;;;;4.2;4.1;;;;;;;-1.6;100.0;102770;;;;
2023/03/01 03:57:00;;;;;;;4.2;4.1;;;;;;;-1.6;100.0;102770;;;;
2023/03/01 03:58:06;;;;;;;4.2;4.1;;;;;;;-1.6;100.0;102780;;;;
2023/03/01 03:59:00;;;;;;;4.2;4.1;;;;;;;-1.6;100.0;102780;;;;
2023/03/01 04:00:00;;;;;;;4.2;4.1;;;;;;;-1.7;100.0;102780;;;;
2023/03/01 04:01:00;;;;;;;4.2;4.1;;;;;;;-1.7;100.0;102780;;;;
2023/03/01 04:02:00;;;;;;;4.2;4.1;;;;;;;-1.7;100.0;102770;;;;
2023/03/01 04:03:00;;;;;;;4.2;4.1;;;;;;;-1.7;100.0;102770;;;;
2023/03/01 04:04:03;;;;;;;4.2;4.1;;;;;;;-1.6;100.0;102770;;;;
2023/03/01 04:05:00;;;;;;;4.2;4.1;;;;;;;-1.6;100.0;102770;;;;
2023/03/01 04:06:01;;;;;;;4.2;4.1;;;;;;;-1.7;100.0;102760;;;;
2023/03/01 04:07:00;;;;;;;4.2;4.1;;;;;;;-1.7;100.0;102760;;;;
2023/03/01 04:08:06;;;;;;;4.2;4.1;;;;;;;-1.6;100.0;102770;;;;
2023/03/01 04:09:02;;;;;;;4.2;4.1;;;;;;;-1.6;100.0;102770;;;;
2023/03/01 04:10:02;;;;;;;4.2;4.1;;;;;;;-1.7;100.0;102760;;;;
2023/03/01 04:11:25;;;;;;;4.0;3.9;;;;;;;-1.7;100.0;102760;;;;
2023/03/01 04:12:00;;;;;;;4.0;3.9;;;;;;;-1.7;100.0;102770;;;;
2023/03/01 04:13:00;;;;;;;4.0;3.9;;;;;;;-1.7;100.0;102770;;;;
2023/03/01 04:14:00;;;;;;;4.0;3.9;;;;;;;-1.7;100.0;102760;;;;
2023/03/01 04:15:01;;;;;;;4.0;3.9;;;;;;;-1.7;100.0;102760;;;;
2023/03/01 04:16:00;;;;;;;4.0;3.9;;;;;;;-1.7;100.0;102760;;;;
2023/03/01 04:17:00;;;;;;;4.0;3.9;;;;;;;-1.7;100.0;102760;;;;
2023/03/01 04:18:01;;;;;;;4.0;3.9;;;;;;;-1.6;100.0;102760;;;;
2023/03/01 04:19:00;;;;;;;4.0;3.9;;;;;;;-1.6;100.0;102760;;;;
2023/03/01 04:20:05;;;;;;;4.0;3.9;;;;;;;-1.7;100.0;102760;;;;
2023/03/01 04:21:00;;;;;;;4.0;3.9;;;;;;;-1.7;100.0;102760;;;;
2023/03/01 04:22:00;;;;;;;4.0;3.9;;;;;;;-1.7;100.0;102750;;;;
2023/03/01 04:24:02;;;;;;;4.0;3.9;;;;;;;-1.8;100.0;102750;;;;
2023/03/01 04:25:06;;;;;;;4.0;3.9;;;;;;;-1.8;100.0;102750;;;;
2023/03/01 04:26:00;;;;;;;4.0;3.9;;;;;;;-1.8;100.0;102750;;;;
2023/03/01 04:27:00;;;;;;;4.0;3.9;;;;;;;-1.8;100.0;102750;;;;
2023/03/01 04:28:00;;;;;;;4.0;3.9;;;;;;;-1.9;100.0;102750;;;;
2023/03/01 04:29:00;;;;;;;4.0;3.9;;;;;;;-1.9;100.0;102750;;;;
2023/03/01 04:30:01;;;;;;;4.0;3.9;;;;;;;-1.9;100.0;102750;;;;
2023/03/01 04:31:12;;;;;;;4.5;4.4;;;;;;;-1.9;100.0;102750;;;;
2023/03/01 04:32:00;;;;;;;4.5;4.4;;;;;;;-1.9;100.0;102750;;;;
2023/03/01 04:33:00;;;;;;;4.5;4.4;;;;;;;-1.9;100.0;102750;;;;
2023/03/01 04:34:00;;;;;;;4.5;4.4;;;;;;;-1.9;100.0;102740;;;;
2023/03/01 04:35:00;;;;;;;4.5;4.4;;;;;;;-1.9;100.0;102740;;;;
2023/03/01 04:36:05;;;;;;;4.5;4.4;;;;;;;-2.0;100.0;102740;;;;
2023/03/01 04:37:00;;;;;;;4.5;4.4;;;;;;;-2.0;100.0;102740;;;;
2023/03/01 04:38:00;;;;;;;4.5;4.4;;;;;;;-1.9;100.0;102740;;;;
2023/03/01 04:39:11;;;;;;;4.5;4.4;;;;;;;-1.9;100.0;102740;;;;
2023/03/01 04:40:12;;;;;;;4.5;4.4;;;;;;;-1.9;100.0;102740;;;;
2023/03/01 04:41:00;;;;;;;4.5;4.4;;;;;;;-1.9;100.0;102740;;;;
2023/03/01 04:42:00;;;;;;;4.5;4.4;;;;;;;-2.0;100.0;102740;;;;
2023/03/01 04:43:01;;;;;;;4.5;4.4;;;;;;;-2.0;100.0;102740;;;;
2023/03/01 04:44:00;;;;;;;4.5;4.4;;;;;;;-2.0;100.0;102730;;;;
2023/03/01 04:45:00;;;;;;;4.5;4.4;;;;;;;-2.0;100.0;102730;;;;
2023/03/01 04:46:02;;;;;;;4.5;4.4;;;;;;;-1.9;100.0;102730;;;;
2023/03/01 04:47:00;;;;;;;4.5;4.4;;;;;;;-1.9;100.0;102730;;;;
2023/03/01 04:48:01;;;;;;;4.5;4.4;;;;;;;-1.8;100.0;102730;;;;
2023/03/01 04:49:00;;;;;;;4.5;4.4;;;;;;;-1.8;100.0;102730;;;;
2023/03/01 04:50:00;;;;;;;4.5;4.4;;;;;;;-1.7;100.0;102730;;;;
2023/03/01 04:51:00;;;;;;;4.2;4.1;;;;;;;-1.7;100.0;102730;;;;
2023/03/01 04:52:03;;;;;;;4.2;4.1;;;;;;;-1.7;100.0;102730;;;;
2023/03/01 04:53:01;;;;;;;4.2;4.1;;;;;;;-1.7;100.0;102730;;;;
2023/03/01 04:54:00;;;;;;;4.2;4.1;;;;;;;-1.9;100.0;102740;;;;
2023/03/01 04:55:01;;;;;;;4.2;4.1;;;;;;;-1.9;100.0;102740;;;;
2023/03/01 04:56:00;;;;;;;4.2;4.1;;;;;;;-1.9;100.0;102740;;;;
2023/03/01 04:57:01;;;;;;;4.2;4.1;;;;;;;-1.9;100.0;102740;;;;
2023/03/01 04:58:00;;;;;;;4.2;4.1;;;;;;;-1.9;100.0;102740;;;;
2023/03/01 04:59:00;;;;;;;4.2;4.1;;;;;;;-1.9;100.0;102740;;;;
2023/03/01 05:00:00;;;;;;;4.2;4.1;;;;;;;-1.9;100.0;102740;;;;
2023/03/01 05:01:00;;;;;;;4.2;4.1;;;;;;;-1.9;100.0;102740;;;;
2023/03/01 05:02:00;;;;;;;4.2;4.1;;;;;;;-2.0;100.0;102730;;;;
2023/03/01 05:03:01;;;;;;;4.2;4.1;;;;;;;-2.0;100.0;102730;;;;
2023/03/01 05:04:02;;;;;;;4.2;4.1;;;;;;;-1.9;100.0;102730;;;;
2023/03/01 05:05:00;;;;;;;4.2;4.1;;;;;;;-1.9;100.0;102730;;;;
2023/03/01 05:06:00;;;;;;;4.2;4.1;;;;;;;-2.0;100.0;102720;;;;
2023/03/01 05:07:00;;;;;;;4.2;4.1;;;;;;;-2.0;100.0;102720;;;;
2023/03/01 05:08:02;;;;;;;4.2;4.1;;;;;;;-2.0;100.0;102730;;;;
2023/03/01 05:09:01;;;;;;;4.2;4.1;;;;;;;-2.0;100.0;102730;;;;
2023/03/01 05:10:00;;;;;;;4.2;4.1;;;;;;;-2.0;100.0;102730;;;;
2023/03/01 05:11:00;;;;;;;4.3;4.2;;;;;;;-2.0;100.0;102730;;;;
2023/03/01 05:12:00;;;;;;;4.3;4.2;;;;;;;-2.0;100.0;102720;;;;
2023/03/01 05:13:01;;;;;;;4.3;4.2;;;;;;;-2.0;100.0;102720;;;;
2023/03/01 05:14:00;;;;;;;4.3;4.2;;;;;;;-1.9;100.0;102720;;;;
2023/03/01 05:15:00;;;;;;;4.3;4.2;;;;;;;-1.9;100.0;102720;;;;
2023/03/01 05:16:01;;;;;;;4.3;4.2;;;;;;;-2.0;100.0;102720;;;;
2023/03/01 05:17:03;;;;;;;4.3;4.2;;;;;;;-2.0;100.0;102720;;;;
2023/03/01 05:18:00;;;;;;;4.3;4.2;;;;;;;-2.0;100.0;102710;;;;
2023/03/01 05:19:00;;;;;;;4.3;4.2;;;;;;;-2.0;100.0;102710;;;;
2023/03/01 05:20:00;;;;;;;4.3;4.2;;;;;;;-2.0;100.0;102710;;;;
2023/03/01 05:21:04;;;;;;;4.3;4.2;;;;;;;-2.0;100.0;102710;;;;
2023/03/01 05:22:01;;;;;;;4.3;4.2;;;;;;;-2.0;100.0;102710;;;;
2023/03/01 05:23:04;;;;;;;4.3;4.2;;;;;;;-2.0;100.0;102710;;;;
2023/03/01 05:24:00;;;;;;;4.3;4.2;;;;;;;-2.0;100.0;102710;;;;
2023/03/01 05:25:00;;;;;;;4.3;4.2;;;;;;;-2.0;100.0;102710;;;;
2023/03/01 05:26:02;;;;;;;4.3;4.2;;;;;;;-2.0;100.0;102710;;;;
2023/03/01 05:27:01;;;;;;;4.3;4.2;;;;;;;-2.0;100.0;102710;;;;
2023/03/01 05:28:04;;;;;;;4.3;4.2;;;;;;;-2.0;100.0;102700;;;;
2023/03/01 05:29:01;;;;;;;4.3;4.2;;;;;;;-2.0;100.0;102700;;;;
2023/03/01 05:30:13;;;;;;;4.7;4.6;;;;;;;-2.0;100.0;102700;;;;
2023/03/01 05:31:01;;;;;;;4.7;4.6;;;;;;;-2.0;100.0;102700;;;;
2023/03/01 05:32:02;;;;;;;4.7;4.6;;;;;;;-1.9;100.0;102700;;;;
2023/03/01 05:33:01;;;;;;;4.7;4.6;;;;;;;-1.9;100.0;102700;;;;
2023/03/01 05:34:01;;;;;;;4.7;4.6;;;;;;;-2.0;100.0;102700;;;;
2023/03/01 05:35:00;;;;;;;4.7;4.6;;;;;;;-2.0;100.0;102700;;;;
2023/03/01 05:36:00;;;;;;;4.7;4.6;;;;;;;-1.9;100.0;102690;;;;
2023/03/01 05:37:01;;;;;;;4.7;4.6;;;;;;;-1.9;100.0;102690;;;;
2023/03/01 05:38:00;;;;;;;4.7;4.6;;;;;;;-2.1;100.0;102690;;;;
2023/03/01 05:39:00;;;;;;;4.7;4.6;;;;;;;-2.1;100.0;102690;;;;
2023/03/01 05:40:00;;;;;;;4.7;4.6;;;;;;;-2.0;100.0;102690;;;;
2023/03/01 05:41:00;;;;;;;4.7;4.6;;;;;;;-2.0;100.0;102690;;;;
2023/03/01 05:42:01;;;;;;;4.7;4.6;;;;;;;-2.0;100.0;102690;;;;
2023/03/01 05:43:01;;;;;;;4.7;4.6;;;;;;;-2.0;100.0;102690;;;;
2023/03/01 05:44:00;;;;;;;4.7;4.6;;;;;;;-2.1;100.0;102680;;;;
2023/03/01 05:45:00;;;;;;;4.7;4.6;;;;;;;-2.1;100.0;102680;;;;
2023/03/01 05:46:00;;;;;;;4.7;4.6;;;;;;;-2.1;100.0;102680;;;;
2023/03/01 05:47:00;;;;;;;4.7;4.6;;;;;;;-2.1;100.0;102680;;;;
2023/03/01 05:48:00;;;;;;;4.7;4.6;;;;;;;-2.1;100.0;102680;;;;
2023/03/01 05:49:00;;;;;;;4.7;4.6;;;;;;;-2.1;100.0;102680;;;;
2023/03/01 05:50:00;;;;;;;4.3;4.2;;;;;;;-2.1;100.0;102680;;;;
2023/03/01 05:51:00;;;;;;;4.3;4.2;;;;;;;-2.1;100.0;102680;;;;
2023/03/01 05:52:00;;;;;;;4.3;4.2;;;;;;;-2.1;100.0;102680;;;;
2023/03/01 05:53:00;;;;;;;4.3;4.2;;;;;;;-2.1;100.0;102680;;;;
2023/03/01 05:54:00;;;;;;;4.3;4.2;;;;;;;-2.2;100.0;102680;;;;
2023/03/01 05:55:00;;;;;;;4.3;4.2;;;;;;;-2.2;100.0;102680;;;;
2023/03/01 05:56:03;;;;;;;4.3;4.2;;;;;;;-2.2;100.0;102680;;;;
2023/03/01 05:57:00;;;;;;;4.3;4.2;;;;;;;-2.2;100.0;102680;;;;
2023/03/01 05:58:02;;;;;;;4.3;4.2;;;;;;;-2.2;100.0;102680;;;;
2023/03/01 05:59:01;;;;;;;4.3;4.2;;;;;;;-2.2;100.0;102680;;;;
2023/03/01 06:00:01;;;;;;;4.3;4.2;;;;;;;-2.2;100.0;102690;;;;
2023/03/01 06:01:00;;;;;;;4.3;4.2;;;;;;;-2.2;100.0;102690;;;;
2023/03/01 06:02:00;;;;;;;4.3;4.2;;;;;;;-2.3;100.0;102690;;;;
2023/03/01 06:03:01;;;;;;;4.3;4.2;;;;;;;-2.3;100.0;102690;;;;
2023/03/01 06:04:00;;;;;;;4.3;4.2;;;;;;;-2.3;100.0;102690;;;;
2023/03/01 06:05:01;;;;;;;4.3;4.2;;;;;;;-2.3;100.0;102690;;;;
2023/03/01 06:06:00;;;;;;;4.3;4.2;;;;;;;-2.2;100.0;102690;;;;
2023/03/01 06:07:00;;;;;;;4.3;4.2;;;;;;;-2.2;100.0;102690;;;;
2023/03/01 06:08:01;;;;;;;4.3;4.2;;;;;;;-2.2;100.0;102690;;;;
2023/03/01 06:09:00;;;;;;;4.3;4.2;;;;;;;-2.2;100.0;102690;;;;
2023/03/01 06:10:01;;;;;;;4.6;4.5;;;;;;;-2.2;100.0;102690;;;;
2023/03/01 06:11:01;;;;;;;4.6;4.5;;;;;;;-2.2;100.0;102690;;;;
2023/03/01 06:12:00;;;;;;;4.6;4.5;;;;;;;-2.1;100.0;102690;;;;
2023/03/01 06:13:00;;;;;;;4.6;4.5;;;;;;;-2.1;100.0;102690;;;;
2023/03/01 06:14:00;;;;;;;4.6;4.5;;;;;;;-2.2;100.0;102690;;;;
2023/03/01 06:15:01;;;;;;;4.6;4.5;;;;;;;-2.2;100.0;102690;;;;
2023/03/01 06:16:00;;;;;;;4.6;4.5;;;;;;;-2.2;100.0;102690;;;;
2023/03/01 06:17:00;;;;;;;4.6;4.5;;;;;;;-2.2;100.0;102690;;;;
2023/03/01 06:18:00;;;;;;;4.6;4.5;;;;;;;-2.2;100.0;102680;;;;
2023/03/01 06:19:00;;;;;;;4.6;4.5;;;;;;;-2.2;100.0;102680;;;;
2023/03/01 06:20:01;;;;;;;4.6;4.5;;;;;;;-2.2;100.0;102690;;;;
2023/03/01 06:21:00;;;;;;;4.6;4.5;;;;;;;-2.2;100.0;102690;;;;
2023/03/01 06:22:00;;;;;;;4.6;4.5;;;;;;;-2.3;100.0;102690;;;;
2023/03/01 06:23:00;;;;;;;4.6;4.5;;;;;;;-2.3;100.0;102690;;;;
2023/03/01 06:24:00;;;;;;;4.6;4.5;;;;;;;-2.3;100.0;102690;;;;
2023/03/01 06:25:00;;;;;;;4.6;4.5;;;;;;;-2.3;100.0;102690;;;;